createdAt,value
2023-03-20T00:02:07.393Z,29.33
2023-03-20T00:04:35.716Z,30.85
2023-03-20T00:07:03.813Z,32.08
2023-03-20T00:09:31.644Z,32.47
2023-03-20T00:12:00.244Z,32.85
2023-03-20T00:14:28.570Z,29.50
2023-03-20T00:16:56.364Z,30.73
2023-03-20T00:19:27.934Z,29.55
2023-03-20T00:21:57.109Z,30.20
2023-03-20T00:24:25.948Z,30.35
2023-03-20T00:26:54.606Z,29.23
2023-03-20T00:29:24.620Z,28.70
2023-03-20T00:31:53.090Z,27.23
2023-03-20T00:34:23.571Z,27.75
2023-03-20T00:36:53.274Z,27.98
2023-03-20T00:39:22.005Z,27.47
2023-03-20T00:41:52.671Z,28.92
2023-03-20T00:44:25.538Z,29.23
2023-03-20T00:46:56.606Z,29.83
2023-03-20T00:49:28.809Z,29.42
2023-03-20T00:51:58.257Z,31.92
2023-03-20T00:54:26.689Z,31.45
2023-03-20T00:56:58.776Z,31.40
2023-03-20T00:59:29.661Z,31.65
2023-03-20T01:01:58.665Z,31.57
2023-03-20T01:04:32.731Z,29.58
2023-03-20T01:07:02.016Z,30.83
2023-03-20T01:09:29.828Z,28.88
2023-03-20T01:11:57.913Z,30.63
2023-03-20T01:14:26.525Z,30.77
2023-03-20T01:16:54.549Z,31.57
2023-03-20T01:19:22.728Z,29.25
2023-03-20T01:21:50.662Z,30.00
2023-03-20T01:24:19.913Z,30.30
2023-03-20T01:26:49.223Z,28.20
2023-03-20T01:29:20.032Z,27.13
2023-03-20T01:31:48.619Z,25.33
2023-03-20T01:34:17.743Z,24.70
2023-03-20T01:36:50.067Z,24.30
2023-03-20T01:39:21.705Z,25.67
2023-03-20T01:41:50.927Z,26.57
2023-03-20T01:44:23.188Z,26.20
2023-03-20T01:46:56.473Z,26.90
2023-03-20T01:50:02.933Z,29.47
2023-03-20T01:52:31.124Z,28.70
2023-03-20T01:55:00.815Z,28.90
2023-03-20T01:57:28.896Z,29.37
2023-03-20T02:00:03.227Z,30.53
2023-03-20T02:02:45.249Z,29.33
2023-03-20T02:05:20.247Z,29.60
2023-03-20T02:07:55.421Z,28.17
2023-03-20T02:10:26.629Z,26.50
2023-03-20T02:13:06.210Z,26.70
2023-03-20T02:16:01.226Z,27.27
2023-03-20T02:18:52.639Z,22.33
2023-03-20T02:22:05.362Z,22.53
2023-03-20T02:25:02.194Z,22.03
2023-03-20T02:27:43.368Z,22.73
2023-03-20T02:30:44.157Z,21.70
2023-03-20T02:33:54.033Z,23.70
2023-03-20T02:36:47.764Z,23.97
2023-03-20T02:39:35.074Z,23.80
2023-03-20T02:42:12.792Z,24.00
2023-03-20T02:44:47.176Z,24.03
2023-03-20T02:47:22.858Z,25.00
2023-03-20T02:49:57.182Z,23.50
2023-03-20T02:52:35.115Z,23.57
2023-03-20T02:55:16.297Z,22.33
2023-03-20T02:57:52.146Z,22.87
2023-03-20T03:00:29.456Z,22.97
2023-03-20T03:03:08.051Z,23.50
2023-03-20T03:05:40.486Z,21.80
2023-03-20T03:08:10.990Z,22.60
2023-03-20T03:10:45.140Z,22.10
2023-03-20T03:13:18.062Z,20.87
2023-03-20T03:15:48.896Z,17.80
2023-03-20T03:18:21.051Z,19.70
2023-03-20T03:20:53.338Z,15.93
2023-03-20T03:23:27.548Z,16.83
2023-03-20T03:25:58.963Z,14.90
2023-03-20T03:28:37.058Z,16.20
2023-03-20T03:31:08.105Z,16.10
2023-03-20T03:33:40.392Z,15.50
2023-03-20T03:36:15.058Z,14.77
2023-03-20T03:38:49.852Z,13.87
2023-03-20T03:41:29.043Z,13.40
2023-03-20T03:44:08.219Z,14.47
2023-03-20T03:46:44.786Z,11.87
2023-03-20T03:49:17.520Z,9.97
2023-03-20T03:51:48.490Z,9.10
2023-03-20T03:54:21.640Z,9.43
2023-03-20T03:57:14.630Z,8.70
2023-03-20T03:59:45.976Z,8.60
2023-03-20T04:02:14.800Z,7.60
2023-03-20T04:04:47.118Z,7.93
2023-03-20T04:07:16.139Z,7.57
2023-03-20T04:09:44.104Z,7.37
2023-03-20T04:12:35.981Z,8.60
2023-03-20T04:15:05.124Z,7.87
2023-03-20T04:17:34.400Z,8.30
2023-03-20T04:20:04.614Z,8.13
2023-03-20T04:22:34.832Z,9.33
2023-03-20T04:25:17.894Z,9.00
2023-03-20T04:27:47.279Z,10.17
2023-03-20T04:30:23.955Z,9.70
2023-03-20T04:33:10.678Z,9.60
2023-03-20T04:35:53.411Z,10.47
2023-03-20T04:38:23.059Z,9.60
2023-03-20T04:40:53.347Z,9.63
2023-03-20T04:43:22.750Z,10.20
2023-03-20T04:45:50.596Z,9.43
2023-03-20T04:48:18.389Z,10.77
2023-03-20T04:50:48.334Z,10.10
2023-03-20T04:53:18.037Z,10.33
2023-03-20T04:55:50.974Z,9.60
2023-03-20T04:58:19.053Z,10.17
2023-03-20T05:00:48.886Z,10.20
2023-03-20T05:03:16.847Z,10.80
2023-03-20T05:05:45.386Z,10.87
2023-03-20T05:08:13.462Z,11.27
2023-03-20T05:10:42.123Z,11.50
2023-03-20T05:13:32.987Z,12.00
2023-03-20T05:16:20.950Z,12.33
2023-03-20T05:19:00.042Z,12.37
2023-03-20T05:21:46.731Z,12.90
2023-03-20T05:24:31.377Z,12.97
2023-03-20T05:27:12.208Z,12.87
2023-03-20T05:29:56.274Z,11.93
2023-03-20T05:32:58.890Z,13.13
2023-03-20T05:35:29.612Z,14.23
2023-03-20T05:38:23.684Z,13.33
2023-03-20T05:41:04.992Z,13.70
2023-03-20T05:43:43.543Z,14.37
2023-03-20T05:46:26.171Z,14.97
2023-03-20T05:49:13.773Z,14.40
2023-03-20T05:52:13.363Z,14.13
2023-03-20T05:55:07.420Z,14.57
2023-03-20T05:57:41.157Z,14.33
2023-03-20T06:00:38.139Z,14.80
2023-03-20T06:03:38.068Z,15.53
2023-03-20T06:06:13.535Z,14.43
2023-03-20T06:08:42.154Z,14.10
2023-03-20T06:11:11.198Z,14.77
2023-03-20T06:13:39.846Z,13.63
2023-03-20T06:16:09.021Z,14.80
2023-03-20T06:18:39.082Z,14.93
2023-03-20T06:21:09.324Z,14.87
2023-03-20T06:23:38.524Z,14.70
2023-03-20T06:26:06.588Z,14.37
2023-03-20T06:28:45.945Z,14.90
2023-03-20T06:31:14.692Z,14.80
2023-03-20T06:33:42.720Z,14.63
2023-03-20T06:36:11.118Z,14.63
2023-03-20T06:38:40.471Z,14.83
2023-03-20T06:41:18.936Z,15.27
2023-03-20T06:43:55.836Z,15.50
2023-03-20T06:46:29.131Z,15.53
2023-03-20T06:48:56.949Z,15.17
2023-03-20T06:51:24.699Z,13.80
2023-03-20T06:53:55.731Z,14.30
2023-03-20T06:56:27.276Z,15.27
2023-03-20T06:58:55.063Z,13.80
2023-03-20T07:01:23.687Z,14.73
2023-03-20T07:03:51.524Z,15.07
2023-03-20T07:06:24.397Z,14.83
2023-03-20T07:08:53.442Z,13.77
2023-03-20T07:11:23.621Z,13.47
2023-03-20T07:13:54.400Z,13.20
2023-03-20T07:16:33.071Z,12.10
2023-03-20T07:19:01.215Z,11.17
2023-03-20T07:21:30.439Z,11.93
2023-03-20T07:23:58.457Z,11.33
2023-03-20T07:26:28.151Z,10.30
2023-03-20T07:28:56.033Z,11.33
2023-03-20T07:31:28.770Z,10.73
2023-03-20T07:34:11.584Z,10.93
2023-03-20T07:36:41.242Z,9.97
2023-03-20T07:39:10.409Z,9.20
2023-03-20T07:41:41.745Z,10.40
2023-03-20T07:44:11.724Z,8.83
2023-03-20T07:46:47.990Z,9.20
2023-03-20T07:49:18.277Z,9.20
2023-03-20T07:51:47.225Z,8.40
2023-03-20T07:54:15.661Z,8.20
2023-03-20T07:56:45.173Z,8.55
2023-03-20T07:59:13.821Z,7.40
2023-03-20T08:01:41.631Z,7.75
2023-03-20T08:04:09.624Z,7.90
2023-03-20T08:06:39.350Z,7.03
2023-03-20T08:09:08.389Z,6.55
2023-03-20T08:11:36.141Z,7.00
2023-03-20T08:14:05.377Z,6.43
2023-03-20T08:16:33.168Z,6.20
2023-03-20T08:19:02.197Z,5.55
2023-03-20T08:21:30.928Z,5.93
2023-03-20T08:23:59.139Z,6.10
2023-03-20T08:26:27.114Z,5.32
2023-03-20T08:28:54.880Z,5.95
2023-03-20T08:47:32.563Z,5.50
2023-03-20T08:50:00.421Z,6.50
2023-03-20T08:52:28.454Z,5.72
2023-03-20T08:54:56.251Z,5.63
2023-03-20T08:57:24.053Z,6.45
2023-03-20T08:59:51.943Z,6.30
2023-03-20T09:02:19.855Z,5.53
2023-03-20T09:04:49.026Z,5.70
2023-03-20T09:07:16.911Z,6.03
2023-03-20T09:09:44.823Z,6.28
2023-03-20T09:12:12.595Z,6.90
2023-03-20T09:14:40.614Z,6.32
2023-03-20T09:17:08.471Z,7.07
2023-03-20T09:19:39.429Z,6.53
2023-03-20T09:22:09.007Z,6.72
2023-03-20T09:24:36.963Z,6.50
2023-03-20T09:27:04.820Z,6.88
2023-03-20T09:29:32.826Z,7.65
2023-03-20T09:32:01.101Z,7.70
2023-03-20T09:34:29.409Z,6.15
2023-03-20T09:36:57.212Z,7.05
2023-03-20T09:39:27.149Z,7.25
2023-03-20T09:41:57.784Z,7.15
2023-03-20T09:44:45.564Z,7.20
2023-03-20T09:47:21.664Z,7.25
2023-03-20T09:50:08.330Z,7.75
2023-03-20T09:52:40.085Z,6.63
2023-03-20T09:55:15.559Z,7.32
2023-03-20T09:57:46.751Z,6.38
2023-03-20T10:00:19.406Z,6.85
2023-03-20T10:02:51.049Z,6.80
2023-03-20T10:05:25.181Z,6.93
2023-03-20T10:07:56.690Z,6.50
2023-03-20T10:10:32.890Z,6.13
2023-03-20T10:13:11.514Z,5.30
2023-03-20T10:15:47.971Z,5.38
2023-03-20T10:18:22.132Z,5.47
2023-03-20T10:20:57.846Z,5.30
2023-03-20T10:23:34.392Z,5.20
2023-03-20T10:26:09.752Z,5.63
2023-03-20T10:28:44.602Z,5.22
2023-03-20T10:31:27.828Z,4.47
2023-03-20T10:34:07.876Z,5.38
2023-03-20T10:36:50.473Z,4.63
2023-03-20T10:39:27.037Z,4.20
2023-03-20T10:41:59.690Z,3.97
2023-03-20T10:44:34.239Z,4.10
2023-03-20T10:47:04.986Z,4.57
2023-03-20T10:49:39.379Z,4.00
2023-03-20T10:52:13.735Z,3.88
2023-03-20T10:54:43.803Z,3.38
2023-03-20T10:57:17.075Z,3.42
2023-03-20T10:59:48.937Z,3.35
2023-03-20T11:02:19.019Z,3.63
2023-03-20T11:04:47.321Z,3.80
2023-03-20T11:07:23.665Z,3.67
2023-03-20T11:10:10.411Z,3.78
2023-03-20T11:12:41.725Z,3.85
2023-03-20T11:15:25.921Z,4.13
2023-03-20T11:17:56.310Z,3.55
2023-03-20T11:20:25.170Z,3.83
2023-03-20T11:22:59.714Z,3.67
2023-03-20T11:25:33.619Z,3.67
2023-03-20T11:28:27.834Z,3.50
2023-03-20T11:31:04.772Z,2.58
2023-03-20T11:33:37.625Z,2.97
2023-03-20T11:36:12.625Z,3.08
2023-03-20T11:38:46.251Z,2.60
2023-03-20T11:41:19.900Z,3.00
2023-03-20T11:43:49.047Z,2.72
2023-03-20T11:46:17.068Z,2.50
2023-03-20T11:48:46.713Z,2.67
2023-03-20T11:51:18.217Z,2.65
2023-03-20T11:54:01.553Z,2.70
2023-03-20T11:56:30.875Z,2.50
2023-03-20T11:59:04.262Z,2.17
2023-03-20T12:01:44.559Z,2.33
2023-03-20T12:04:16.738Z,2.40
2023-03-20T12:06:48.592Z,2.10
2023-03-20T12:09:39.903Z,2.65
2023-03-20T12:12:17.479Z,1.83
2023-03-20T12:14:54.805Z,2.22
2023-03-20T12:17:33.661Z,2.00
2023-03-20T12:20:07.005Z,2.72
2023-03-20T12:22:39.565Z,2.10
2023-03-20T12:25:17.954Z,1.90
2023-03-20T12:27:51.433Z,2.30
2023-03-20T12:30:27.714Z,2.35
2023-03-20T12:33:01.545Z,2.20
2023-03-20T12:35:31.287Z,2.80
2023-03-20T12:37:59.819Z,2.65
2023-03-20T12:40:34.609Z,2.08
2023-03-20T12:43:06.620Z,2.90
2023-03-20T12:45:44.187Z,2.83
2023-03-20T12:48:33.852Z,2.88
2023-03-20T12:51:07.647Z,3.10
2023-03-20T12:53:48.086Z,3.08
2023-03-20T12:56:29.865Z,2.80
2023-03-20T12:59:04.916Z,2.70
2023-03-20T13:01:41.286Z,3.08
2023-03-20T13:04:33.369Z,2.60
2023-03-20T13:07:02.740Z,2.60
2023-03-20T13:09:49.767Z,2.28
2023-03-20T13:12:32.569Z,2.95
2023-03-20T13:15:14.803Z,2.33
2023-03-20T13:17:51.376Z,2.30
2023-03-20T13:20:27.019Z,2.15
2023-03-20T13:23:20.639Z,2.97
2023-03-20T13:26:21.047Z,2.90
2023-03-20T13:28:57.625Z,2.83
2023-03-20T13:31:37.116Z,3.92
2023-03-20T13:34:18.713Z,3.22
2023-03-20T13:37:12.379Z,3.72
2023-03-20T13:39:51.957Z,3.53
2023-03-20T13:42:23.964Z,3.60
2023-03-20T13:44:55.054Z,2.92
2023-03-20T13:47:25.727Z,3.17
2023-03-20T13:50:06.050Z,2.60
2023-03-20T13:52:40.380Z,2.85
2023-03-20T13:55:21.244Z,2.50
2023-03-20T13:58:14.687Z,2.55
2023-03-20T14:00:51.143Z,2.50
2023-03-20T14:03:22.807Z,3.10
2023-03-20T14:05:52.133Z,2.90
2023-03-20T14:08:32.354Z,3.00
2023-03-20T14:11:32.542Z,2.10
2023-03-20T14:14:07.887Z,2.25
2023-03-20T14:16:36.074Z,3.15
2023-03-20T14:19:11.588Z,3.22
2023-03-20T14:21:46.741Z,3.05
2023-03-20T14:24:18.603Z,3.13
2023-03-20T14:26:51.102Z,3.28
2023-03-20T14:29:33.780Z,3.10
2023-03-20T14:32:22.190Z,3.67
2023-03-20T14:34:51.592Z,3.38
2023-03-20T14:37:32.291Z,3.17
2023-03-20T14:40:08.184Z,3.08
2023-03-20T14:42:49.384Z,3.42
2023-03-20T14:45:31.503Z,2.78
2023-03-20T14:48:05.891Z,2.70
2023-03-20T14:50:39.726Z,2.90
2023-03-20T14:53:18.114Z,3.05
2023-03-20T14:55:53.233Z,2.80
2023-03-20T14:58:43.209Z,2.70
2023-03-20T15:01:19.740Z,2.90
2023-03-20T15:03:51.934Z,2.85
2023-03-20T15:06:22.392Z,2.90
2023-03-20T15:08:55.087Z,3.53
2023-03-20T15:11:25.002Z,3.25
2023-03-20T15:13:54.362Z,3.03
2023-03-20T15:16:29.974Z,2.90
2023-03-20T15:18:57.971Z,2.75
2023-03-20T15:21:33.528Z,3.30
2023-03-20T15:24:03.018Z,2.78
2023-03-20T15:26:33.485Z,2.58
2023-03-20T15:29:04.741Z,2.53
2023-03-20T15:31:34.741Z,2.50
2023-03-20T15:34:07.736Z,2.53
2023-03-20T15:36:38.814Z,3.10
2023-03-20T15:39:15.739Z,3.20
2023-03-20T15:41:47.015Z,3.20
2023-03-20T15:44:21.083Z,3.67
2023-03-20T15:46:55.332Z,3.10
2023-03-20T15:49:24.265Z,3.08
2023-03-20T15:51:53.506Z,3.35
2023-03-20T15:54:23.006Z,3.10
2023-03-20T15:56:53.684Z,3.20
2023-03-20T15:59:25.043Z,3.25
2023-03-20T16:01:57.153Z,2.83
2023-03-20T16:04:25.599Z,3.50
2023-03-20T16:06:56.164Z,3.40
2023-03-20T16:09:26.081Z,3.20
2023-03-20T16:11:58.452Z,2.93
2023-03-20T16:14:28.707Z,3.37
2023-03-20T16:16:59.240Z,3.60
2023-03-20T16:19:29.978Z,3.73
2023-03-20T16:22:00.581Z,3.00
2023-03-20T16:24:31.771Z,3.20
2023-03-20T16:26:59.719Z,3.67
2023-03-20T16:29:31.075Z,4.07
2023-03-20T16:32:02.876Z,4.37
2023-03-20T16:34:34.900Z,3.60
2023-03-20T16:37:09.701Z,3.67
2023-03-20T16:39:38.988Z,4.00
2023-03-20T16:42:24.630Z,3.80
2023-03-20T16:44:56.614Z,5.10
2023-03-20T16:47:26.129Z,5.30
2023-03-20T16:50:35.408Z,4.53
2023-03-20T16:53:03.604Z,4.80
2023-03-20T16:55:36.252Z,4.63
2023-03-20T16:58:07.017Z,4.80
2023-03-20T17:00:44.137Z,5.50
2023-03-20T17:03:16.448Z,5.10
2023-03-20T17:05:51.017Z,5.03
2023-03-20T17:08:26.744Z,5.03
2023-03-20T17:11:00.445Z,5.17
2023-03-20T17:13:28.367Z,5.30
2023-03-20T17:15:56.328Z,5.00
2023-03-20T17:18:24.124Z,5.63
2023-03-20T17:20:51.909Z,5.47
2023-03-20T17:23:22.654Z,5.60
2023-03-20T17:25:51.893Z,5.63
2023-03-20T17:28:23.441Z,5.50
2023-03-20T17:30:52.722Z,5.83
2023-03-20T17:33:21.991Z,5.10
2023-03-20T17:35:50.529Z,5.67
2023-03-20T17:38:22.260Z,5.90
2023-03-20T17:40:51.369Z,5.53
2023-03-20T17:43:21.470Z,5.53
2023-03-20T17:45:50.206Z,5.67
2023-03-20T17:48:20.591Z,5.83
2023-03-20T17:50:50.930Z,5.67
2023-03-20T17:53:20.976Z,5.97
2023-03-20T17:55:48.791Z,5.87
2023-03-20T17:58:18.309Z,5.57
2023-03-20T18:00:47.538Z,5.77
2023-03-20T18:03:16.703Z,5.80
2023-03-20T18:05:45.014Z,5.33
2023-03-20T18:08:17.200Z,4.57
2023-03-20T18:10:45.199Z,5.37
2023-03-20T18:13:13.069Z,4.83
2023-03-20T18:15:41.295Z,4.50
2023-03-20T18:18:10.529Z,4.77
2023-03-20T18:20:41.072Z,5.57
2023-03-20T18:23:09.530Z,5.30
2023-03-20T18:25:37.674Z,5.70
2023-03-20T18:28:08.010Z,5.93
2023-03-20T18:30:38.266Z,5.53
2023-03-20T18:33:06.701Z,5.37
2023-03-20T18:35:36.952Z,5.53
2023-03-20T18:38:05.751Z,5.67
2023-03-20T18:40:35.504Z,5.67
2023-03-20T18:43:03.961Z,5.33
2023-03-20T18:45:32.809Z,5.20
2023-03-20T18:48:03.781Z,4.97
2023-03-20T18:50:37.656Z,4.50
2023-03-20T18:53:08.211Z,4.33
2023-03-20T18:55:36.755Z,4.23
2023-03-20T18:58:06.171Z,4.13
2023-03-20T19:00:39.959Z,4.63
2023-03-20T19:03:09.241Z,4.10
2023-03-20T19:05:37.272Z,4.57
2023-03-20T19:08:07.074Z,4.40
2023-03-20T19:10:37.588Z,3.90
2023-03-20T19:13:07.641Z,3.73
2023-03-20T19:15:38.611Z,3.70
2023-03-20T19:18:08.679Z,3.70
2023-03-20T19:20:38.714Z,3.90
2023-03-20T19:23:10.269Z,5.33
2023-03-20T19:25:38.712Z,3.80
2023-03-20T19:28:07.899Z,3.87
2023-03-20T19:30:38.040Z,3.83
2023-03-20T19:33:07.377Z,3.93
2023-03-20T19:35:58.774Z,3.80
2023-03-20T19:38:26.096Z,3.70
2023-03-20T19:40:54.505Z,3.67
2023-03-20T19:43:23.546Z,3.35
2023-03-20T19:45:58.028Z,3.57
2023-03-20T19:51:20.248Z,3.77
2023-03-20T19:53:50.561Z,3.83
2023-03-20T19:56:20.457Z,3.83
2023-03-20T19:58:49.595Z,4.20
2023-03-20T20:01:19.433Z,3.83
2023-03-20T20:03:48.101Z,3.57
2023-03-20T20:06:16.632Z,3.63
2023-03-20T20:08:48.864Z,4.07
2023-03-20T20:11:19.549Z,4.10
2023-03-20T20:14:04.712Z,4.43
2023-03-20T20:16:33.359Z,3.93
2023-03-20T20:19:01.218Z,4.60
2023-03-20T20:24:17.099Z,4.20
2023-03-20T20:26:54.421Z,3.93
2023-03-20T20:29:25.607Z,4.20
2023-03-20T20:31:53.583Z,3.83
2023-03-20T20:39:58.074Z,3.80
2023-03-20T20:42:27.273Z,4.07
2023-03-20T20:44:55.065Z,3.83
2023-03-20T20:47:22.973Z,4.30
2023-03-20T20:49:51.080Z,4.50
2023-03-20T20:52:18.924Z,4.70
2023-03-20T20:54:46.738Z,4.23
2023-03-20T20:57:15.106Z,3.77
2023-03-20T20:59:44.435Z,4.20
2023-03-20T21:02:13.295Z,4.32
2023-03-20T21:04:42.475Z,3.73
2023-03-20T21:07:12.568Z,4.22
2023-03-20T21:09:41.398Z,3.83
2023-03-20T21:12:22.703Z,3.77
2023-03-20T21:14:59.888Z,4.03
2023-03-20T21:17:28.518Z,4.13
2023-03-20T21:19:56.728Z,4.23
2023-03-20T21:22:25.366Z,4.50
2023-03-20T21:25:00.799Z,3.38
2023-03-20T21:27:35.326Z,4.20
2023-03-20T21:30:06.400Z,4.18
2023-03-20T21:32:36.815Z,4.43
2023-03-20T21:35:07.548Z,3.40
2023-03-20T21:40:24.008Z,3.93
2023-03-20T21:42:51.801Z,4.07
2023-03-20T21:51:49.219Z,4.30
2023-03-20T22:00:01.119Z,4.00
2023-03-20T22:02:22.180Z,4.33
2023-03-20T22:05:40.113Z,4.30
2023-03-20T22:08:26.505Z,4.73
2023-03-20T22:11:20.188Z,4.20
2023-03-20T22:22:55.227Z,4.60
2023-03-20T22:33:58.491Z,4.93
2023-03-20T22:47:02.626Z,5.40
2023-03-20T22:49:30.496Z,5.13
2023-03-20T22:52:29.156Z,5.47
2023-03-20T22:54:47.536Z,5.55
2023-03-20T22:57:15.315Z,5.22
2023-03-20T22:59:43.102Z,4.53
2023-03-20T23:02:10.908Z,5.50
2023-03-20T23:04:38.777Z,4.97
2023-03-20T23:07:07.935Z,5.60
2023-03-20T23:09:35.683Z,4.65
2023-03-20T23:12:03.431Z,4.38
2023-03-20T23:14:44.747Z,5.35
2023-03-20T23:17:13.479Z,5.07
2023-03-20T23:19:46.952Z,4.95
2023-03-20T23:22:19.585Z,5.63
2023-03-20T23:24:48.000Z,5.47
2023-03-20T23:27:15.775Z,5.37
2023-03-20T23:29:43.546Z,5.75
2023-03-20T23:32:11.613Z,5.25
2023-03-20T23:34:39.396Z,5.75
2023-03-20T23:37:07.135Z,5.70
2023-03-20T23:39:36.283Z,5.30
2023-03-20T23:42:17.424Z,5.93
2023-03-20T23:44:56.425Z,6.27
2023-03-20T23:50:26.510Z,6.10
2023-03-20T23:53:06.496Z,5.50
2023-03-20T23:55:43.001Z,5.90
2023-03-20T23:58:11.098Z,5.63
